sensor_id;sensor_type;location;lat;lon;timestamp;P1;durP1;ratioP1;P2;durP2;ratioP2
14153;SDS011;7157;53.144;7.570;2022-09-29T00:05:35;8.73;;;3.95;;
14153;SDS011;7157;53.144;7.570;2022-09-29T00:15:39;7.65;;;3.20;;
14153;SDS011;7157;53.144;7.570;2022-09-29T00:25:41;6.45;;;3.80;;
14153;SDS011;7157;53.144;7.570;2022-09-29T00:35:51;5.78;;;3.17;;
14153;SDS011;7157;53.144;7.570;2022-09-29T00:45:59;6.10;;;2.67;;
14153;SDS011;7157;53.144;7.570;2022-09-29T00:56:04;10.15;;;2.60;;
14153;SDS011;7157;53.144;7.570;2022-09-29T01:06:11;4.22;;;2.80;;
14153;SDS011;7157;53.144;7.570;2022-09-29T01:16:19;5.75;;;2.97;;
14153;SDS011;7157;53.144;7.570;2022-09-29T01:26:33;5.07;;;2.70;;
14153;SDS011;7157;53.144;7.570;2022-09-29T01:37:00;4.72;;;2.70;;
14153;SDS011;7157;53.144;7.570;2022-09-29T01:47:12;4.18;;;2.55;;
14153;SDS011;7157;53.144;7.570;2022-09-29T01:57:22;6.75;;;2.28;;
14153;SDS011;7157;53.144;7.570;2022-09-29T02:07:32;11.68;;;2.97;;
14153;SDS011;7157;53.144;7.570;2022-09-29T02:17:39;4.32;;;2.42;;
14153;SDS011;7157;53.144;7.570;2022-09-29T02:27:46;5.45;;;2.92;;
14153;SDS011;7157;53.144;7.570;2022-09-29T02:37:57;5.22;;;3.05;;
14153;SDS011;7157;53.144;7.570;2022-09-29T02:48:12;32.22;;;3.72;;
14153;SDS011;7157;53.144;7.570;2022-09-29T02:58:27;40.75;;;3.70;;
14153;SDS011;7157;53.144;7.570;2022-09-29T03:08:34;34.73;;;3.50;;
14153;SDS011;7157;53.144;7.570;2022-09-29T03:18:38;13.35;;;3.03;;
14153;SDS011;7157;53.144;7.570;2022-09-29T03:28:41;65.25;;;4.57;;
14153;SDS011;7157;53.144;7.570;2022-09-29T03:38:45;9.25;;;2.75;;
14153;SDS011;7157;53.144;7.570;2022-09-29T03:48:48;4.65;;;3.13;;
14153;SDS011;7157;53.144;7.570;2022-09-29T03:58:52;4.57;;;2.95;;
14153;SDS011;7157;53.144;7.570;2022-09-29T04:08:55;15.40;;;3.47;;
14153;SDS011;7157;53.144;7.570;2022-09-29T04:18:59;15.60;;;3.33;;
14153;SDS011;7157;53.144;7.570;2022-09-29T04:29:02;27.80;;;4.30;;
14153;SDS011;7157;53.144;7.570;2022-09-29T04:39:06;8.82;;;3.75;;
14153;SDS011;7157;53.144;7.570;2022-09-29T04:49:09;69.60;;;6.38;;
14153;SDS011;7157;53.144;7.570;2022-09-29T04:59:13;41.67;;;4.78;;
14153;SDS011;7157;53.144;7.570;2022-09-29T05:09:17;39.80;;;4.82;;
14153;SDS011;7157;53.144;7.570;2022-09-29T05:19:26;6.95;;;4.32;;
14153;SDS011;7157;53.144;7.570;2022-09-29T05:29:29;11.68;;;5.68;;
14153;SDS011;7157;53.144;7.570;2022-09-29T05:39:33;36.67;;;5.43;;
14153;SDS011;7157;53.144;7.570;2022-09-29T05:49:37;8.55;;;5.25;;
14153;SDS011;7157;53.144;7.570;2022-09-29T05:59:41;19.17;;;5.43;;
14153;SDS011;7157;53.144;7.570;2022-09-29T06:09:44;51.20;;;8.05;;
14153;SDS011;7157;53.144;7.570;2022-09-29T06:19:49;10.25;;;5.40;;
14153;SDS011;7157;53.144;7.570;2022-09-29T06:29:53;9.00;;;5.50;;
14153;SDS011;7157;53.144;7.570;2022-09-29T06:39:57;8.57;;;5.55;;
14153;SDS011;7157;53.144;7.570;2022-09-29T06:49:59;10.48;;;6.25;;
14153;SDS011;7157;53.144;7.570;2022-09-29T07:00:11;12.17;;;7.37;;
14153;SDS011;7157;53.144;7.570;2022-09-29T07:10:14;9.60;;;6.43;;
14153;SDS011;7157;53.144;7.570;2022-09-29T07:20:19;48.05;;;8.40;;
14153;SDS011;7157;53.144;7.570;2022-09-29T07:30:21;19.15;;;7.85;;
14153;SDS011;7157;53.144;7.570;2022-09-29T07:40:41;48.78;;;9.50;;
14153;SDS011;7157;53.144;7.570;2022-09-29T07:50:44;20.20;;;8.77;;
14153;SDS011;7157;53.144;7.570;2022-09-29T08:00:53;36.17;;;10.82;;
14153;SDS011;7157;53.144;7.570;2022-09-29T08:11:02;18.30;;;9.35;;
14153;SDS011;7157;53.144;7.570;2022-09-29T08:21:07;16.53;;;9.57;;
14153;SDS011;7157;53.144;7.570;2022-09-29T08:31:13;18.27;;;10.40;;
14153;SDS011;7157;53.144;7.570;2022-09-29T08:41:25;41.50;;;11.15;;
14153;SDS011;7157;53.144;7.570;2022-09-29T08:51:36;24.58;;;10.40;;
14153;SDS011;7157;53.144;7.570;2022-09-29T09:01:49;19.40;;;11.50;;
14153;SDS011;7157;53.144;7.570;2022-09-29T09:12:01;26.20;;;11.55;;
14153;SDS011;7157;53.144;7.570;2022-09-29T09:22:24;19.45;;;10.90;;
14153;SDS011;7157;53.144;7.570;2022-09-29T09:32:36;19.35;;;11.25;;
14153;SDS011;7157;53.144;7.570;2022-09-29T09:42:49;18.70;;;11.07;;
14153;SDS011;7157;53.144;7.570;2022-09-29T09:52:56;16.97;;;10.33;;
14153;SDS011;7157;53.144;7.570;2022-09-29T10:03:05;14.15;;;8.45;;
14153;SDS011;7157;53.144;7.570;2022-09-29T10:13:10;15.40;;;9.15;;
14153;SDS011;7157;53.144;7.570;2022-09-29T10:33:38;11.15;;;6.78;;
14153;SDS011;7157;53.144;7.570;2022-09-29T10:43:50;10.30;;;6.53;;
14153;SDS011;7157;53.144;7.570;2022-09-29T10:53:54;9.00;;;5.00;;
14153;SDS011;7157;53.144;7.570;2022-09-29T11:03:58;7.93;;;5.45;;
14153;SDS011;7157;53.144;7.570;2022-09-29T11:14:04;9.07;;;5.00;;
14153;SDS011;7157;53.144;7.570;2022-09-29T11:24:09;6.50;;;4.30;;
14153;SDS011;7157;53.144;7.570;2022-09-29T11:34:32;5.38;;;3.20;;
14153;SDS011;7157;53.144;7.570;2022-09-29T11:55:12;4.07;;;2.42;;
14153;SDS011;7157;53.144;7.570;2022-09-29T12:05:25;6.03;;;2.53;;
14153;SDS011;7157;53.144;7.570;2022-09-29T12:15:39;5.03;;;2.80;;
14153;SDS011;7157;53.144;7.570;2022-09-29T12:25:52;3.88;;;2.70;;
14153;SDS011;7157;53.144;7.570;2022-09-29T12:36:05;6.07;;;3.15;;
14153;SDS011;7157;53.144;7.570;2022-09-29T12:46:32;4.45;;;2.53;;
14153;SDS011;7157;53.144;7.570;2022-09-29T12:56:39;5.68;;;1.90;;
14153;SDS011;7157;53.144;7.570;2022-09-29T13:06:49;4.25;;;1.40;;
14153;SDS011;7157;53.144;7.570;2022-09-29T13:17:12;3.53;;;1.30;;
14153;SDS011;7157;53.144;7.570;2022-09-29T13:27:28;2.47;;;1.10;;
14153;SDS011;7157;53.144;7.570;2022-09-29T13:37:41;2.60;;;1.20;;
14153;SDS011;7157;53.144;7.570;2022-09-29T13:47:48;2.53;;;1.10;;
14153;SDS011;7157;53.144;7.570;2022-09-29T13:57:52;6.25;;;1.50;;
14153;SDS011;7157;53.144;7.570;2022-09-29T14:08:07;2.50;;;1.08;;
14153;SDS011;7157;53.144;7.570;2022-09-29T14:18:17;5.45;;;1.30;;
14153;SDS011;7157;53.144;7.570;2022-09-29T14:28:33;8.27;;;5.10;;
14153;SDS011;7157;53.144;7.570;2022-09-29T14:38:39;3.55;;;1.50;;
14153;SDS011;7157;53.144;7.570;2022-09-29T14:48:49;5.13;;;1.90;;
14153;SDS011;7157;53.144;7.570;2022-09-29T14:59:22;4.40;;;1.65;;
14153;SDS011;7157;53.144;7.570;2022-09-29T15:09:37;6.13;;;2.35;;
14153;SDS011;7157;53.144;7.570;2022-09-29T15:19:48;4.20;;;1.63;;
14153;SDS011;7157;53.144;7.570;2022-09-29T15:29:59;4.82;;;2.30;;
14153;SDS011;7157;53.144;7.570;2022-09-29T15:40:02;3.47;;;1.65;;
14153;SDS011;7157;53.144;7.570;2022-09-29T15:50:15;5.18;;;2.60;;
14153;SDS011;7157;53.144;7.570;2022-09-29T16:10:55;5.43;;;1.50;;
14153;SDS011;7157;53.144;7.570;2022-09-29T16:21:03;30.00;;;14.15;;
14153;SDS011;7157;53.144;7.570;2022-09-29T16:31:17;5.78;;;3.60;;
14153;SDS011;7157;53.144;7.570;2022-09-29T16:41:24;5.90;;;3.15;;
14153;SDS011;7157;53.144;7.570;2022-09-29T16:51:39;14.00;;;3.47;;
14153;SDS011;7157;53.144;7.570;2022-09-29T17:01:46;10.55;;;6.20;;
14153;SDS011;7157;53.144;7.570;2022-09-29T17:11:50;7.05;;;3.13;;
14153;SDS011;7157;53.144;7.570;2022-09-29T17:21:53;6.63;;;2.97;;
14153;SDS011;7157;53.144;7.570;2022-09-29T17:31:58;7.53;;;4.00;;
14153;SDS011;7157;53.144;7.570;2022-09-29T17:42:02;9.25;;;4.78;;
14153;SDS011;7157;53.144;7.570;2022-09-29T17:52:06;8.32;;;4.40;;
14153;SDS011;7157;53.144;7.570;2022-09-29T18:02:10;9.35;;;4.35;;
14153;SDS011;7157;53.144;7.570;2022-09-29T18:12:15;7.10;;;3.60;;
14153;SDS011;7157;53.144;7.570;2022-09-29T18:22:18;5.90;;;3.65;;
14153;SDS011;7157;53.144;7.570;2022-09-29T18:32:22;9.10;;;4.78;;
14153;SDS011;7157;53.144;7.570;2022-09-29T18:42:24;9.77;;;5.32;;
14153;SDS011;7157;53.144;7.570;2022-09-29T18:52:28;8.55;;;5.80;;
14153;SDS011;7157;53.144;7.570;2022-09-29T19:02:31;8.43;;;4.10;;
14153;SDS011;7157;53.144;7.570;2022-09-29T19:12:35;7.70;;;4.30;;
14153;SDS011;7157;53.144;7.570;2022-09-29T19:22:38;7.70;;;5.10;;
14153;SDS011;7157;53.144;7.570;2022-09-29T19:32:44;9.25;;;5.13;;
14153;SDS011;7157;53.144;7.570;2022-09-29T19:42:46;16.70;;;6.22;;
14153;SDS011;7157;53.144;7.570;2022-09-29T19:52:50;9.95;;;5.80;;
14153;SDS011;7157;53.144;7.570;2022-09-29T20:02:53;12.35;;;6.22;;
14153;SDS011;7157;53.144;7.570;2022-09-29T20:12:58;14.98;;;6.97;;
14153;SDS011;7157;53.144;7.570;2022-09-29T20:23:01;7.78;;;5.03;;
14153;SDS011;7157;53.144;7.570;2022-09-29T20:33:05;8.18;;;4.70;;
14153;SDS011;7157;53.144;7.570;2022-09-29T20:43:07;7.95;;;4.43;;
14153;SDS011;7157;53.144;7.570;2022-09-29T20:53:13;7.80;;;4.40;;
14153;SDS011;7157;53.144;7.570;2022-09-29T21:14:00;9.63;;;5.68;;
14153;SDS011;7157;53.144;7.570;2022-09-29T21:24:03;10.23;;;6.40;;
14153;SDS011;7157;53.144;7.570;2022-09-29T21:34:08;10.52;;;5.85;;
14153;SDS011;7157;53.144;7.570;2022-09-29T21:44:11;8.77;;;5.55;;
14153;SDS011;7157;53.144;7.570;2022-09-29T21:54:18;13.18;;;5.88;;
14153;SDS011;7157;53.144;7.570;2022-09-29T22:04:22;10.48;;;5.55;;
14153;SDS011;7157;53.144;7.570;2022-09-29T22:14:26;9.57;;;4.75;;
14153;SDS011;7157;53.144;7.570;2022-09-29T22:24:29;7.50;;;4.30;;
14153;SDS011;7157;53.144;7.570;2022-09-29T22:34:33;9.60;;;4.95;;
14153;SDS011;7157;53.144;7.570;2022-09-29T22:44:36;7.95;;;4.47;;
14153;SDS011;7157;53.144;7.570;2022-09-29T22:54:40;7.45;;;4.60;;
14153;SDS011;7157;53.144;7.570;2022-09-29T23:04:43;10.85;;;4.97;;
14153;SDS011;7157;53.144;7.570;2022-09-29T23:14:47;7.55;;;4.60;;
14153;SDS011;7157;53.144;7.570;2022-09-29T23:24:50;8.95;;;5.68;;
14153;SDS011;7157;53.144;7.570;2022-09-29T23:34:54;10.35;;;5.35;;
14153;SDS011;7157;53.144;7.570;2022-09-29T23:44:57;12.07;;;5.63;;
14153;SDS011;7157;53.144;7.570;2022-09-29T23:55:01;9.10;;;5.63;;
